sensor_id;sensor_type;location;lat;lon;timestamp;P1;durP1;ratioP1;P2;durP2;ratioP2
37657;SDS011;23500;53.268;8.308;2024-03-02T00:00:36;7.97;;;7.28;;
37657;SDS011;23500;53.268;8.308;2024-03-02T00:03:02;7.95;;;7.18;;
37657;SDS011;23500;53.268;8.308;2024-03-02T00:05:28;8.10;;;7.40;;
37657;SDS011;23500;53.268;8.308;2024-03-02T00:07:55;7.78;;;7.07;;
37657;SDS011;23500;53.268;8.308;2024-03-02T00:10:22;7.82;;;7.10;;
37657;SDS011;23500;53.268;8.308;2024-03-02T00:12:56;7.75;;;7.15;;
37657;SDS011;23500;53.268;8.308;2024-03-02T00:18:19;8.30;;;7.60;;
37657;SDS011;23500;53.268;8.308;2024-03-02T00:20:49;8.07;;;7.38;;
37657;SDS011;23500;53.268;8.308;2024-03-02T00:23:19;8.07;;;7.28;;
37657;SDS011;23500;53.268;8.308;2024-03-02T00:25:47;7.90;;;7.20;;
37657;SDS011;23500;53.268;8.308;2024-03-02T00:28:21;7.53;;;6.85;;
37657;SDS011;23500;53.268;8.308;2024-03-02T00:33:22;7.50;;;6.90;;
37657;SDS011;23500;53.268;8.308;2024-03-02T00:35:49;7.38;;;6.72;;
37657;SDS011;23500;53.268;8.308;2024-03-02T00:38:15;7.32;;;6.72;;
37657;SDS011;23500;53.268;8.308;2024-03-02T00:40:42;7.68;;;6.97;;
37657;SDS011;23500;53.268;8.308;2024-03-02T00:46:08;7.60;;;6.90;;
37657;SDS011;23500;53.268;8.308;2024-03-02T00:48:34;7.93;;;7.22;;
37657;SDS011;23500;53.268;8.308;2024-03-02T00:51:01;7.72;;;7.13;;
37657;SDS011;23500;53.268;8.308;2024-03-02T00:53:31;7.68;;;6.97;;
37657;SDS011;23500;53.268;8.308;2024-03-02T00:55:58;7.50;;;6.90;;
37657;SDS011;23500;53.268;8.308;2024-03-02T00:58:27;7.68;;;7.05;;
37657;SDS011;23500;53.268;8.308;2024-03-02T01:00:52;7.68;;;7.07;;
37657;SDS011;23500;53.268;8.308;2024-03-02T01:03:18;7.45;;;6.85;;
37657;SDS011;23500;53.268;8.308;2024-03-02T01:05:44;7.30;;;6.70;;
37657;SDS011;23500;53.268;8.308;2024-03-02T01:08:10;7.35;;;6.72;;
37657;SDS011;23500;53.268;8.308;2024-03-02T01:10:36;7.60;;;7.00;;
37657;SDS011;23500;53.268;8.308;2024-03-02T01:13:02;7.57;;;6.88;;
37657;SDS011;23500;53.268;8.308;2024-03-02T01:15:28;7.30;;;6.70;;
37657;SDS011;23500;53.268;8.308;2024-03-02T01:17:54;6.70;;;6.13;;
37657;SDS011;23500;53.268;8.308;2024-03-02T01:20:19;7.65;;;6.90;;
37657;SDS011;23500;53.268;8.308;2024-03-02T01:22:46;7.15;;;6.55;;
37657;SDS011;23500;53.268;8.308;2024-03-02T01:25:12;7.00;;;6.47;;
37657;SDS011;23500;53.268;8.308;2024-03-02T01:27:38;10.02;;;6.82;;
37657;SDS011;23500;53.268;8.308;2024-03-02T01:30:04;7.65;;;6.95;;
37657;SDS011;23500;53.268;8.308;2024-03-02T01:32:31;7.75;;;6.88;;
37657;SDS011;23500;53.268;8.308;2024-03-02T01:34:56;7.43;;;6.75;;
37657;SDS011;23500;53.268;8.308;2024-03-02T01:37:22;7.38;;;6.78;;
37657;SDS011;23500;53.268;8.308;2024-03-02T01:39:48;7.60;;;6.90;;
37657;SDS011;23500;53.268;8.308;2024-03-02T01:42:13;7.13;;;6.53;;
37657;SDS011;23500;53.268;8.308;2024-03-02T01:44:39;7.45;;;6.80;;
37657;SDS011;23500;53.268;8.308;2024-03-02T01:47:05;7.00;;;6.40;;
37657;SDS011;23500;53.268;8.308;2024-03-02T01:49:31;7.28;;;6.68;;
37657;SDS011;23500;53.268;8.308;2024-03-02T01:51:59;7.22;;;6.60;;
37657;SDS011;23500;53.268;8.308;2024-03-02T01:54:24;6.57;;;6.07;;
37657;SDS011;23500;53.268;8.308;2024-03-02T01:56:50;7.18;;;6.57;;
37657;SDS011;23500;53.268;8.308;2024-03-02T01:59:16;7.10;;;6.50;;
37657;SDS011;23500;53.268;8.308;2024-03-02T02:01:42;7.50;;;6.90;;
37657;SDS011;23500;53.268;8.308;2024-03-02T02:04:07;7.30;;;6.60;;
37657;SDS011;23500;53.268;8.308;2024-03-02T02:06:33;7.07;;;6.47;;
37657;SDS011;23500;53.268;8.308;2024-03-02T02:08:59;7.90;;;7.13;;
37657;SDS011;23500;53.268;8.308;2024-03-02T02:11:25;7.30;;;6.70;;
37657;SDS011;23500;53.268;8.308;2024-03-02T02:13:51;7.60;;;6.90;;
37657;SDS011;23500;53.268;8.308;2024-03-02T02:16:17;7.13;;;6.57;;
37657;SDS011;23500;53.268;8.308;2024-03-02T02:18:42;6.78;;;6.28;;
37657;SDS011;23500;53.268;8.308;2024-03-02T02:21:08;7.25;;;6.65;;
37657;SDS011;23500;53.268;8.308;2024-03-02T02:23:34;7.25;;;6.65;;
37657;SDS011;23500;53.268;8.308;2024-03-02T02:26:00;7.00;;;6.40;;
37657;SDS011;23500;53.268;8.308;2024-03-02T02:28:26;6.93;;;6.38;;
37657;SDS011;23500;53.268;8.308;2024-03-02T02:30:52;7.32;;;6.72;;
37657;SDS011;23500;53.268;8.308;2024-03-02T02:33:21;7.30;;;6.63;;
37657;SDS011;23500;53.268;8.308;2024-03-02T02:35:47;7.20;;;6.60;;
37657;SDS011;23500;53.268;8.308;2024-03-02T02:38:12;7.05;;;6.35;;
37657;SDS011;23500;53.268;8.308;2024-03-02T02:40:38;6.93;;;6.40;;
37657;SDS011;23500;53.268;8.308;2024-03-02T02:43:04;6.90;;;6.32;;
37657;SDS011;23500;53.268;8.308;2024-03-02T02:45:29;7.18;;;6.47;;
37657;SDS011;23500;53.268;8.308;2024-03-02T02:47:56;6.65;;;6.15;;
37657;SDS011;23500;53.268;8.308;2024-03-02T02:50:21;7.32;;;6.63;;
37657;SDS011;23500;53.268;8.308;2024-03-02T02:52:47;6.72;;;6.13;;
37657;SDS011;23500;53.268;8.308;2024-03-02T02:55:13;7.15;;;6.55;;
37657;SDS011;23500;53.268;8.308;2024-03-02T02:57:41;6.75;;;6.25;;
37657;SDS011;23500;53.268;8.308;2024-03-02T03:00:08;6.40;;;5.80;;
37657;SDS011;23500;53.268;8.308;2024-03-02T03:02:38;6.65;;;6.15;;
37657;SDS011;23500;53.268;8.308;2024-03-02T03:05:05;6.47;;;5.97;;
37657;SDS011;23500;53.268;8.308;2024-03-02T03:07:31;6.32;;;5.78;;
37657;SDS011;23500;53.268;8.308;2024-03-02T03:09:58;6.80;;;6.20;;
37657;SDS011;23500;53.268;8.308;2024-03-02T03:12:24;6.68;;;6.05;;
37657;SDS011;23500;53.268;8.308;2024-03-02T03:14:50;6.72;;;6.13;;
37657;SDS011;23500;53.268;8.308;2024-03-02T03:17:15;6.30;;;5.80;;
37657;SDS011;23500;53.268;8.308;2024-03-02T03:19:42;6.97;;;6.38;;
37657;SDS011;23500;53.268;8.308;2024-03-02T03:22:08;6.78;;;6.18;;
37657;SDS011;23500;53.268;8.308;2024-03-02T03:24:33;6.82;;;6.22;;
37657;SDS011;23500;53.268;8.308;2024-03-02T03:26:59;6.57;;;6.07;;
37657;SDS011;23500;53.268;8.308;2024-03-02T03:29:25;6.85;;;6.25;;
37657;SDS011;23500;53.268;8.308;2024-03-02T03:31:50;6.30;;;5.80;;
37657;SDS011;23500;53.268;8.308;2024-03-02T03:34:16;6.87;;;6.27;;
37657;SDS011;23500;53.268;8.308;2024-03-02T03:36:42;6.82;;;6.22;;
37657;SDS011;23500;53.268;8.308;2024-03-02T03:39:08;6.50;;;6.00;;
37657;SDS011;23500;53.268;8.308;2024-03-02T03:41:34;6.05;;;5.60;;
37657;SDS011;23500;53.268;8.308;2024-03-02T03:43:59;6.40;;;5.80;;
37657;SDS011;23500;53.268;8.308;2024-03-02T03:46:25;6.38;;;5.88;;
37657;SDS011;23500;53.268;8.308;2024-03-02T03:48:50;6.32;;;5.72;;
37657;SDS011;23500;53.268;8.308;2024-03-02T03:51:16;6.55;;;6.05;;
37657;SDS011;23500;53.268;8.308;2024-03-02T03:53:42;6.00;;;5.45;;
37657;SDS011;23500;53.268;8.308;2024-03-02T03:56:07;6.10;;;5.60;;
37657;SDS011;23500;53.268;8.308;2024-03-02T03:58:33;6.40;;;5.80;;
37657;SDS011;23500;53.268;8.308;2024-03-02T04:00:59;6.30;;;5.80;;
37657;SDS011;23500;53.268;8.308;2024-03-02T04:03:24;5.95;;;5.45;;
37657;SDS011;23500;53.268;8.308;2024-03-02T04:05:50;6.32;;;5.80;;
37657;SDS011;23500;53.268;8.308;2024-03-02T04:08:16;6.32;;;5.82;;
37657;SDS011;23500;53.268;8.308;2024-03-02T04:10:43;6.25;;;5.75;;
37657;SDS011;23500;53.268;8.308;2024-03-02T04:13:08;5.90;;;5.40;;
37657;SDS011;23500;53.268;8.308;2024-03-02T04:15:34;6.05;;;5.55;;
37657;SDS011;23500;53.268;8.308;2024-03-02T04:18:00;6.38;;;5.88;;
37657;SDS011;23500;53.268;8.308;2024-03-02T04:20:26;6.28;;;5.68;;
37657;SDS011;23500;53.268;8.308;2024-03-02T04:22:52;5.97;;;5.47;;
37657;SDS011;23500;53.268;8.308;2024-03-02T04:25:18;6.15;;;5.65;;
37657;SDS011;23500;53.268;8.308;2024-03-02T04:27:44;5.55;;;5.15;;
37657;SDS011;23500;53.268;8.308;2024-03-02T04:30:10;5.97;;;5.47;;
37657;SDS011;23500;53.268;8.308;2024-03-02T04:32:36;6.15;;;5.65;;
37657;SDS011;23500;53.268;8.308;2024-03-02T04:35:02;6.30;;;5.70;;
37657;SDS011;23500;53.268;8.308;2024-03-02T04:37:28;5.72;;;5.28;;
37657;SDS011;23500;53.268;8.308;2024-03-02T04:39:53;6.22;;;5.68;;
37657;SDS011;23500;53.268;8.308;2024-03-02T04:42:19;5.68;;;5.20;;
37657;SDS011;23500;53.268;8.308;2024-03-02T04:44:45;5.38;;;4.97;;
37657;SDS011;23500;53.268;8.308;2024-03-02T04:47:11;5.95;;;5.45;;
37657;SDS011;23500;53.268;8.308;2024-03-02T04:49:37;6.13;;;5.63;;
37657;SDS011;23500;53.268;8.308;2024-03-02T04:52:03;5.38;;;4.97;;
37657;SDS011;23500;53.268;8.308;2024-03-02T04:54:29;6.15;;;5.63;;
37657;SDS011;23500;53.268;8.308;2024-03-02T04:56:54;5.70;;;5.20;;
37657;SDS011;23500;53.268;8.308;2024-03-02T04:59:20;6.05;;;5.55;;
37657;SDS011;23500;53.268;8.308;2024-03-02T05:01:46;5.43;;;4.93;;
37657;SDS011;23500;53.268;8.308;2024-03-02T05:04:12;6.10;;;5.60;;
37657;SDS011;23500;53.268;8.308;2024-03-02T05:06:38;5.77;;;5.30;;
37657;SDS011;23500;53.268;8.308;2024-03-02T05:09:08;5.93;;;5.43;;
37657;SDS011;23500;53.268;8.308;2024-03-02T05:11:34;6.00;;;5.50;;
37657;SDS011;23500;53.268;8.308;2024-03-02T05:14:03;5.60;;;5.10;;
37657;SDS011;23500;53.268;8.308;2024-03-02T05:16:32;5.80;;;5.33;;
37657;SDS011;23500;53.268;8.308;2024-03-02T05:18:58;5.40;;;5.00;;
37657;SDS011;23500;53.268;8.308;2024-03-02T05:21:24;5.67;;;5.20;;
37657;SDS011;23500;53.268;8.308;2024-03-02T05:23:50;5.63;;;5.07;;
37657;SDS011;23500;53.268;8.308;2024-03-02T05:26:15;6.15;;;5.60;;
37657;SDS011;23500;53.268;8.308;2024-03-02T05:28:41;5.72;;;5.22;;
37657;SDS011;23500;53.268;8.308;2024-03-02T05:31:09;5.82;;;5.32;;
37657;SDS011;23500;53.268;8.308;2024-03-02T05:33:39;5.43;;;4.93;;
37657;SDS011;23500;53.268;8.308;2024-03-02T05:36:05;5.95;;;5.47;;
37657;SDS011;23500;53.268;8.308;2024-03-02T05:38:31;5.05;;;4.65;;
37657;SDS011;23500;53.268;8.308;2024-03-02T05:40:57;5.43;;;5.03;;
37657;SDS011;23500;53.268;8.308;2024-03-02T05:43:23;5.38;;;4.95;;
37657;SDS011;23500;53.268;8.308;2024-03-02T05:45:48;6.03;;;5.53;;
37657;SDS011;23500;53.268;8.308;2024-03-02T05:48:14;5.65;;;5.20;;
37657;SDS011;23500;53.268;8.308;2024-03-02T05:50:40;6.13;;;5.63;;
37657;SDS011;23500;53.268;8.308;2024-03-02T05:53:05;5.90;;;5.40;;
37657;SDS011;23500;53.268;8.308;2024-03-02T05:55:31;5.57;;;5.15;;
37657;SDS011;23500;53.268;8.308;2024-03-02T05:57:57;5.43;;;4.93;;
37657;SDS011;23500;53.268;8.308;2024-03-02T06:00:32;5.28;;;4.78;;
37657;SDS011;23500;53.268;8.308;2024-03-02T06:02:58;5.72;;;5.22;;
37657;SDS011;23500;53.268;8.308;2024-03-02T06:05:24;5.78;;;5.28;;
37657;SDS011;23500;53.268;8.308;2024-03-02T06:07:50;5.00;;;4.60;;
37657;SDS011;23500;53.268;8.308;2024-03-02T06:10:15;5.50;;;5.10;;
37657;SDS011;23500;53.268;8.308;2024-03-02T06:12:42;5.60;;;5.10;;
37657;SDS011;23500;53.268;8.308;2024-03-02T06:15:08;4.78;;;4.45;;
37657;SDS011;23500;53.268;8.308;2024-03-02T06:17:35;5.40;;;4.97;;
37657;SDS011;23500;53.268;8.308;2024-03-02T06:20:00;5.10;;;4.70;;
37657;SDS011;23500;53.268;8.308;2024-03-02T06:22:26;5.10;;;4.60;;
37657;SDS011;23500;53.268;8.308;2024-03-02T06:24:52;5.38;;;4.97;;
37657;SDS011;23500;53.268;8.308;2024-03-02T06:27:18;5.20;;;4.80;;
37657;SDS011;23500;53.268;8.308;2024-03-02T06:29:44;5.00;;;4.50;;
37657;SDS011;23500;53.268;8.308;2024-03-02T06:32:09;5.22;;;4.82;;
37657;SDS011;23500;53.268;8.308;2024-03-02T06:34:35;5.47;;;4.97;;
37657;SDS011;23500;53.268;8.308;2024-03-02T06:37:00;5.38;;;4.90;;
37657;SDS011;23500;53.268;8.308;2024-03-02T06:39:26;5.18;;;4.68;;
37657;SDS011;23500;53.268;8.308;2024-03-02T06:41:52;6.43;;;4.80;;
37657;SDS011;23500;53.268;8.308;2024-03-02T06:44:17;5.07;;;4.68;;
37657;SDS011;23500;53.268;8.308;2024-03-02T06:46:43;5.10;;;4.70;;
37657;SDS011;23500;53.268;8.308;2024-03-02T06:49:09;4.70;;;4.38;;
37657;SDS011;23500;53.268;8.308;2024-03-02T06:51:37;5.10;;;4.70;;
37657;SDS011;23500;53.268;8.308;2024-03-02T06:54:03;5.20;;;4.80;;
37657;SDS011;23500;53.268;8.308;2024-03-02T06:56:29;5.20;;;4.80;;
37657;SDS011;23500;53.268;8.308;2024-03-02T06:58:55;5.03;;;4.63;;
37657;SDS011;23500;53.268;8.308;2024-03-02T07:01:21;4.97;;;4.57;;
37657;SDS011;23500;53.268;8.308;2024-03-02T07:03:47;4.82;;;4.43;;
37657;SDS011;23500;53.268;8.308;2024-03-02T07:06:12;4.72;;;4.40;;
37657;SDS011;23500;53.268;8.308;2024-03-02T07:08:38;5.10;;;4.70;;
37657;SDS011;23500;53.268;8.308;2024-03-02T07:11:04;4.80;;;4.50;;
37657;SDS011;23500;53.268;8.308;2024-03-02T07:13:29;4.75;;;4.35;;
37657;SDS011;23500;53.268;8.308;2024-03-02T07:15:55;5.05;;;4.60;;
37657;SDS011;23500;53.268;8.308;2024-03-02T07:18:36;4.90;;;4.50;;
37657;SDS011;23500;53.268;8.308;2024-03-02T07:21:17;4.97;;;4.57;;
37657;SDS011;23500;53.268;8.308;2024-03-02T07:23:43;5.18;;;4.70;;
37657;SDS011;23500;53.268;8.308;2024-03-02T07:26:08;5.45;;;4.60;;
37657;SDS011;23500;53.268;8.308;2024-03-02T07:28:34;5.47;;;4.93;;
37657;SDS011;23500;53.268;8.308;2024-03-02T07:31:00;5.78;;;4.80;;
37657;SDS011;23500;53.268;8.308;2024-03-02T07:33:27;6.47;;;4.70;;
37657;SDS011;23500;53.268;8.308;2024-03-02T07:35:53;28.45;;;9.00;;
37657;SDS011;23500;53.268;8.308;2024-03-02T07:38:20;52.22;;;13.18;;
37657;SDS011;23500;53.268;8.308;2024-03-02T07:40:47;45.80;;;12.90;;
37657;SDS011;23500;53.268;8.308;2024-03-02T07:43:16;50.10;;;13.70;;
37657;SDS011;23500;53.268;8.308;2024-03-02T07:45:42;46.03;;;10.80;;
37657;SDS011;23500;53.268;8.308;2024-03-02T07:48:08;39.92;;;11.45;;
37657;SDS011;23500;53.268;8.308;2024-03-02T07:50:33;40.15;;;11.32;;
37657;SDS011;23500;53.268;8.308;2024-03-02T07:53:00;33.97;;;10.60;;
37657;SDS011;23500;53.268;8.308;2024-03-02T07:55:26;33.85;;;10.75;;
37657;SDS011;23500;53.268;8.308;2024-03-02T07:57:52;32.67;;;10.07;;
37657;SDS011;23500;53.268;8.308;2024-03-02T08:00:18;34.30;;;10.13;;
37657;SDS011;23500;53.268;8.308;2024-03-02T08:02:44;34.60;;;10.95;;
37657;SDS011;23500;53.268;8.308;2024-03-02T08:05:09;25.00;;;9.23;;
37657;SDS011;23500;53.268;8.308;2024-03-02T08:07:35;26.45;;;9.02;;
37657;SDS011;23500;53.268;8.308;2024-03-02T08:10:01;27.92;;;9.57;;
37657;SDS011;23500;53.268;8.308;2024-03-02T08:12:27;24.25;;;9.48;;
37657;SDS011;23500;53.268;8.308;2024-03-02T08:14:52;20.95;;;9.40;;
37657;SDS011;23500;53.268;8.308;2024-03-02T08:17:18;23.92;;;9.23;;
37657;SDS011;23500;53.268;8.308;2024-03-02T08:19:44;22.33;;;8.43;;
37657;SDS011;23500;53.268;8.308;2024-03-02T08:22:10;21.70;;;8.27;;
37657;SDS011;23500;53.268;8.308;2024-03-02T08:24:35;24.45;;;9.02;;
37657;SDS011;23500;53.268;8.308;2024-03-02T08:27:01;21.48;;;8.75;;
37657;SDS011;23500;53.268;8.308;2024-03-02T08:29:27;19.42;;;8.40;;
37657;SDS011;23500;53.268;8.308;2024-03-02T08:31:53;21.00;;;7.97;;
37657;SDS011;23500;53.268;8.308;2024-03-02T08:34:19;23.58;;;7.93;;
37657;SDS011;23500;53.268;8.308;2024-03-02T08:36:46;18.80;;;7.63;;
37657;SDS011;23500;53.268;8.308;2024-03-02T08:39:11;17.73;;;8.05;;
37657;SDS011;23500;53.268;8.308;2024-03-02T08:41:41;20.85;;;8.18;;
37657;SDS011;23500;53.268;8.308;2024-03-02T08:44:08;17.08;;;7.90;;
37657;SDS011;23500;53.268;8.308;2024-03-02T08:46:34;17.80;;;7.57;;
37657;SDS011;23500;53.268;8.308;2024-03-02T08:49:00;18.08;;;7.50;;
37657;SDS011;23500;53.268;8.308;2024-03-02T08:51:25;20.25;;;7.40;;
37657;SDS011;23500;53.268;8.308;2024-03-02T08:53:51;16.08;;;7.22;;
37657;SDS011;23500;53.268;8.308;2024-03-02T08:56:17;19.77;;;7.60;;
37657;SDS011;23500;53.268;8.308;2024-03-02T08:58:43;15.35;;;6.00;;
37657;SDS011;23500;53.268;8.308;2024-03-02T09:01:09;13.70;;;5.60;;
37657;SDS011;23500;53.268;8.308;2024-03-02T09:03:36;9.48;;;5.38;;
37657;SDS011;23500;53.268;8.308;2024-03-02T09:06:02;10.95;;;4.95;;
37657;SDS011;23500;53.268;8.308;2024-03-02T09:08:28;10.48;;;5.20;;
37657;SDS011;23500;53.268;8.308;2024-03-02T09:10:54;10.02;;;5.20;;
37657;SDS011;23500;53.268;8.308;2024-03-02T09:13:21;8.65;;;4.60;;
37657;SDS011;23500;53.268;8.308;2024-03-02T09:15:47;10.07;;;4.70;;
37657;SDS011;23500;53.268;8.308;2024-03-02T09:18:13;9.05;;;4.38;;
37657;SDS011;23500;53.268;8.308;2024-03-02T09:20:39;7.97;;;4.47;;
37657;SDS011;23500;53.268;8.308;2024-03-02T09:23:04;12.68;;;5.00;;
37657;SDS011;23500;53.268;8.308;2024-03-02T09:25:30;12.25;;;5.40;;
37657;SDS011;23500;53.268;8.308;2024-03-02T09:27:56;11.15;;;4.78;;
37657;SDS011;23500;53.268;8.308;2024-03-02T09:30:21;10.02;;;4.75;;
37657;SDS011;23500;53.268;8.308;2024-03-02T09:32:47;10.02;;;4.97;;
37657;SDS011;23500;53.268;8.308;2024-03-02T09:35:13;11.45;;;4.80;;
37657;SDS011;23500;53.268;8.308;2024-03-02T09:37:38;11.63;;;5.10;;
37657;SDS011;23500;53.268;8.308;2024-03-02T09:40:04;11.57;;;5.47;;
37657;SDS011;23500;53.268;8.308;2024-03-02T09:42:31;7.05;;;4.63;;
37657;SDS011;23500;53.268;8.308;2024-03-02T09:44:57;8.50;;;4.70;;
37657;SDS011;23500;53.268;8.308;2024-03-02T09:47:23;10.90;;;4.72;;
37657;SDS011;23500;53.268;8.308;2024-03-02T09:49:49;12.20;;;5.00;;
37657;SDS011;23500;53.268;8.308;2024-03-02T09:52:15;10.38;;;4.88;;
37657;SDS011;23500;53.268;8.308;2024-03-02T09:54:41;8.57;;;4.68;;
37657;SDS011;23500;53.268;8.308;2024-03-02T09:57:07;9.15;;;4.57;;
37657;SDS011;23500;53.268;8.308;2024-03-02T09:59:32;6.30;;;4.35;;
37657;SDS011;23500;53.268;8.308;2024-03-02T10:02:02;9.48;;;4.57;;
37657;SDS011;23500;53.268;8.308;2024-03-02T10:04:28;10.07;;;4.93;;
37657;SDS011;23500;53.268;8.308;2024-03-02T10:09:38;6.97;;;4.50;;
37657;SDS011;23500;53.268;8.308;2024-03-02T10:12:04;7.65;;;4.07;;
37657;SDS011;23500;53.268;8.308;2024-03-02T10:14:31;7.68;;;4.25;;
37657;SDS011;23500;53.268;8.308;2024-03-02T10:17:04;8.45;;;4.43;;
37657;SDS011;23500;53.268;8.308;2024-03-02T10:19:31;8.57;;;4.40;;
37657;SDS011;23500;53.268;8.308;2024-03-02T10:21:59;6.38;;;4.22;;
37657;SDS011;23500;53.268;8.308;2024-03-02T10:24:27;7.82;;;4.38;;
37657;SDS011;23500;53.268;8.308;2024-03-02T10:26:59;8.82;;;4.53;;
37657;SDS011;23500;53.268;8.308;2024-03-02T10:29:25;8.23;;;4.32;;
37657;SDS011;23500;53.268;8.308;2024-03-02T10:31:53;6.15;;;4.25;;
37657;SDS011;23500;53.268;8.308;2024-03-02T10:34:22;10.02;;;4.75;;
37657;SDS011;23500;53.268;8.308;2024-03-02T10:36:47;6.75;;;4.38;;
37657;SDS011;23500;53.268;8.308;2024-03-02T10:39:15;7.28;;;4.28;;
37657;SDS011;23500;53.268;8.308;2024-03-02T10:41:40;6.00;;;4.00;;
37657;SDS011;23500;53.268;8.308;2024-03-02T10:44:07;8.90;;;3.97;;
37657;SDS011;23500;53.268;8.308;2024-03-02T10:46:34;6.10;;;3.95;;
37657;SDS011;23500;53.268;8.308;2024-03-02T10:49:02;8.05;;;4.07;;
37657;SDS011;23500;53.268;8.308;2024-03-02T10:51:30;6.43;;;4.15;;
37657;SDS011;23500;53.268;8.308;2024-03-02T10:53:58;6.53;;;4.22;;
37657;SDS011;23500;53.268;8.308;2024-03-02T10:56:28;6.28;;;4.10;;
37657;SDS011;23500;53.268;8.308;2024-03-02T10:59:02;5.90;;;4.03;;
37657;SDS011;23500;53.268;8.308;2024-03-02T11:01:34;8.80;;;4.40;;
37657;SDS011;23500;53.268;8.308;2024-03-02T11:04:02;4.60;;;3.72;;
37657;SDS011;23500;53.268;8.308;2024-03-02T11:06:29;6.85;;;4.45;;
37657;SDS011;23500;53.268;8.308;2024-03-02T11:08:58;5.88;;;3.78;;
37657;SDS011;23500;53.268;8.308;2024-03-02T11:11:32;5.35;;;3.90;;
37657;SDS011;23500;53.268;8.308;2024-03-02T11:14:02;6.70;;;4.32;;
37657;SDS011;23500;53.268;8.308;2024-03-02T11:16:34;6.72;;;3.97;;
37657;SDS011;23500;53.268;8.308;2024-03-02T11:19:11;6.93;;;4.18;;
37657;SDS011;23500;53.268;8.308;2024-03-02T11:21:38;5.95;;;3.92;;
37657;SDS011;23500;53.268;8.308;2024-03-02T11:26:49;6.57;;;3.80;;
37657;SDS011;23500;53.268;8.308;2024-03-02T11:30:00;5.80;;;3.63;;
37657;SDS011;23500;53.268;8.308;2024-03-02T11:34:50;7.43;;;4.00;;
37657;SDS011;23500;53.268;8.308;2024-03-02T11:37:17;4.13;;;3.42;;
37657;SDS011;23500;53.268;8.308;2024-03-02T11:39:45;6.13;;;4.10;;
37657;SDS011;23500;53.268;8.308;2024-03-02T11:42:13;6.47;;;3.72;;
37657;SDS011;23500;53.268;8.308;2024-03-02T11:44:46;6.28;;;3.55;;
37657;SDS011;23500;53.268;8.308;2024-03-02T11:47:16;7.53;;;4.13;;
37657;SDS011;23500;53.268;8.308;2024-03-02T11:49:43;6.85;;;3.58;;
37657;SDS011;23500;53.268;8.308;2024-03-02T11:52:11;5.82;;;3.60;;
37657;SDS011;23500;53.268;8.308;2024-03-02T11:54:41;4.88;;;3.75;;
37657;SDS011;23500;53.268;8.308;2024-03-02T11:57:17;4.95;;;3.70;;
37657;SDS011;23500;53.268;8.308;2024-03-02T11:59:44;5.88;;;3.40;;
37657;SDS011;23500;53.268;8.308;2024-03-02T12:02:17;4.68;;;3.60;;
37657;SDS011;23500;53.268;8.308;2024-03-02T12:04:44;4.82;;;3.55;;
37657;SDS011;23500;53.268;8.308;2024-03-02T12:07:10;5.38;;;3.83;;
37657;SDS011;23500;53.268;8.308;2024-03-02T12:09:37;5.60;;;3.40;;
37657;SDS011;23500;53.268;8.308;2024-03-02T12:14:30;5.35;;;3.65;;
37657;SDS011;23500;53.268;8.308;2024-03-02T12:16:57;5.05;;;3.30;;
37657;SDS011;23500;53.268;8.308;2024-03-02T12:19:24;5.35;;;3.58;;
37657;SDS011;23500;53.268;8.308;2024-03-02T12:21:54;6.95;;;2.80;;
37657;SDS011;23500;53.268;8.308;2024-03-02T12:24:30;6.35;;;3.17;;
37657;SDS011;23500;53.268;8.308;2024-03-02T12:26:56;5.90;;;3.10;;
37657;SDS011;23500;53.268;8.308;2024-03-02T12:29:22;6.32;;;3.30;;
37657;SDS011;23500;53.268;8.308;2024-03-02T12:31:49;6.32;;;3.08;;
37657;SDS011;23500;53.268;8.308;2024-03-02T12:34:17;5.32;;;3.15;;
37657;SDS011;23500;53.268;8.308;2024-03-02T12:36:45;6.90;;;3.13;;
37657;SDS011;23500;53.268;8.308;2024-03-02T12:39:14;7.22;;;3.42;;
37657;SDS011;23500;53.268;8.308;2024-03-02T12:41:43;6.85;;;3.65;;
37657;SDS011;23500;53.268;8.308;2024-03-02T12:44:09;5.07;;;3.28;;
37657;SDS011;23500;53.268;8.308;2024-03-02T12:46:35;6.85;;;3.22;;
37657;SDS011;23500;53.268;8.308;2024-03-02T12:49:08;5.07;;;3.03;;
37657;SDS011;23500;53.268;8.308;2024-03-02T12:51:35;5.68;;;3.25;;
37657;SDS011;23500;53.268;8.308;2024-03-02T12:54:02;7.97;;;3.22;;
37657;SDS011;23500;53.268;8.308;2024-03-02T12:56:30;6.20;;;3.65;;
37657;SDS011;23500;53.268;8.308;2024-03-02T12:58:56;6.15;;;3.00;;
37657;SDS011;23500;53.268;8.308;2024-03-02T13:01:22;3.95;;;2.92;;
37657;SDS011;23500;53.268;8.308;2024-03-02T13:03:49;5.03;;;2.88;;
37657;SDS011;23500;53.268;8.308;2024-03-02T13:06:18;4.82;;;3.05;;
37657;SDS011;23500;53.268;8.308;2024-03-02T13:08:45;4.65;;;3.00;;
37657;SDS011;23500;53.268;8.308;2024-03-02T13:11:11;5.22;;;3.20;;
37657;SDS011;23500;53.268;8.308;2024-03-02T13:13:38;4.38;;;3.20;;
37657;SDS011;23500;53.268;8.308;2024-03-02T13:16:08;7.00;;;3.17;;
37657;SDS011;23500;53.268;8.308;2024-03-02T13:18:40;4.97;;;3.47;;
37657;SDS011;23500;53.268;8.308;2024-03-02T13:21:07;4.22;;;3.08;;
37657;SDS011;23500;53.268;8.308;2024-03-02T13:23:33;5.55;;;2.85;;
37657;SDS011;23500;53.268;8.308;2024-03-02T13:26:00;4.55;;;3.08;;
37657;SDS011;23500;53.268;8.308;2024-03-02T13:28:26;7.03;;;3.00;;
37657;SDS011;23500;53.268;8.308;2024-03-02T13:30:52;4.85;;;3.28;;
37657;SDS011;23500;53.268;8.308;2024-03-02T13:33:18;6.97;;;3.53;;
37657;SDS011;23500;53.268;8.308;2024-03-02T13:35:47;5.85;;;3.17;;
37657;SDS011;23500;53.268;8.308;2024-03-02T13:38:15;6.25;;;2.97;;
37657;SDS011;23500;53.268;8.308;2024-03-02T13:40:44;4.75;;;2.72;;
37657;SDS011;23500;53.268;8.308;2024-03-02T13:43:10;4.47;;;2.60;;
37657;SDS011;23500;53.268;8.308;2024-03-02T13:45:37;4.20;;;2.95;;
37657;SDS011;23500;53.268;8.308;2024-03-02T13:48:03;4.40;;;2.90;;
37657;SDS011;23500;53.268;8.308;2024-03-02T13:50:29;4.07;;;2.70;;
37657;SDS011;23500;53.268;8.308;2024-03-02T13:52:55;4.10;;;2.80;;
37657;SDS011;23500;53.268;8.308;2024-03-02T13:55:21;3.97;;;2.70;;
37657;SDS011;23500;53.268;8.308;2024-03-02T13:57:47;3.28;;;2.65;;
37657;SDS011;23500;53.268;8.308;2024-03-02T14:00:15;3.92;;;2.55;;
37657;SDS011;23500;53.268;8.308;2024-03-02T14:02:42;4.68;;;2.92;;
37657;SDS011;23500;53.268;8.308;2024-03-02T14:05:08;4.55;;;2.80;;
37657;SDS011;23500;53.268;8.308;2024-03-02T14:07:37;4.60;;;2.85;;
37657;SDS011;23500;53.268;8.308;2024-03-02T14:10:03;2.85;;;2.47;;
37657;SDS011;23500;53.268;8.308;2024-03-02T14:12:29;3.80;;;2.78;;
37657;SDS011;23500;53.268;8.308;2024-03-02T14:14:55;4.35;;;2.70;;
37657;SDS011;23500;53.268;8.308;2024-03-02T14:17:23;4.13;;;2.72;;
37657;SDS011;23500;53.268;8.308;2024-03-02T14:19:49;3.95;;;2.90;;
37657;SDS011;23500;53.268;8.308;2024-03-02T14:22:16;3.50;;;2.90;;
37657;SDS011;23500;53.268;8.308;2024-03-02T14:24:42;4.70;;;2.80;;
37657;SDS011;23500;53.268;8.308;2024-03-02T14:27:09;4.68;;;3.00;;
37657;SDS011;23500;53.268;8.308;2024-03-02T14:29:34;4.38;;;3.08;;
37657;SDS011;23500;53.268;8.308;2024-03-02T14:32:02;5.15;;;2.45;;
37657;SDS011;23500;53.268;8.308;2024-03-02T14:34:29;4.07;;;3.05;;
37657;SDS011;23500;53.268;8.308;2024-03-02T14:36:54;4.10;;;2.88;;
37657;SDS011;23500;53.268;8.308;2024-03-02T14:39:28;5.70;;;2.90;;
37657;SDS011;23500;53.268;8.308;2024-03-02T14:41:54;3.20;;;2.90;;
37657;SDS011;23500;53.268;8.308;2024-03-02T14:44:20;4.63;;;2.75;;
37657;SDS011;23500;53.268;8.308;2024-03-02T14:46:47;3.63;;;2.70;;
37657;SDS011;23500;53.268;8.308;2024-03-02T14:49:13;3.35;;;2.70;;
37657;SDS011;23500;53.268;8.308;2024-03-02T14:51:39;3.25;;;2.70;;
37657;SDS011;23500;53.268;8.308;2024-03-02T14:54:04;3.60;;;2.67;;
37657;SDS011;23500;53.268;8.308;2024-03-02T14:56:30;4.90;;;2.97;;
37657;SDS011;23500;53.268;8.308;2024-03-02T14:58:56;3.03;;;2.58;;
37657;SDS011;23500;53.268;8.308;2024-03-02T15:01:21;4.25;;;2.90;;